Bo Sabanetas, Puerto Rico
Current Conditions -  °F | °C
As of 7:50 AM on Monday 24 Nov 2014 (Local Time) from TJPS Reporting Station
Few Clouds Few Clouds  
Wind Chill: 81°   Ceiling: Unl
Heat Index: 85°   Visibility: 10mi
Dew Point: 72°   Wind: 12mph
Humidity: 74%   Direction: 60°ENE
Pressure: 29.97"   Gusts: NA
Location:  18.0093°N, 66.6209°W
Report Text: TJPS 241150Z 06010KT 10SM FEW030 27/22 A2997
Loading
Personal Weather Stations






























Interactive Weather Map New forecast layout! Learn more

10-Day Weather Forecast

Advertisements
Track Severe Weather on mobile